Time;durP1;ratioP1;P1;durP2;ratioP2;P2;SDS_P1;SDS_P2;PMS_P1;PMS_P2;Temp;Humidity;BMP_temperature;BMP_pressure;BME280_temperature;BME280_humidity;BME280_pressure;Samples;Min_cycle;Max_cycle;Signal;HPM_P1;HPM_P2
2020/12/16 00:01:54;;;;;;;44.05;24.30;;;-1.20;86.20;;;;;;5077330;28;20025;-89
2020/12/16 00:04:23;;;;;;;36.77;21.80;;;-1.30;86.00;;;;;;5092439;28;20048;-82
2020/12/16 00:06:50;;;;;;;38.20;19.98;;;-1.20;85.80;;;;;;5072632;28;20654;-92
2020/12/16 00:09:16;;;;;;;42.75;21.10;;;-1.20;85.80;;;;;;5060706;28;20021;-92
2020/12/16 00:11:42;;;;;;;40.58;20.15;;;-1.20;85.80;;;;;;5061208;28;20040;-89
2020/12/16 00:14:08;;;;;;;35.10;20.77;;;-1.20;85.70;;;;;;5057559;28;20032;-90
2020/12/16 00:16:33;;;;;;;40.78;21.73;;;-1.20;85.70;;;;;;5064215;28;20024;-90
2020/12/16 00:18:59;;;;;;;39.60;19.95;;;-1.30;85.50;;;;;;5071981;28;20025;-91
2020/12/16 00:21:26;;;;;;;36.65;20.63;;;-1.30;85.70;;;;;;5078441;28;20095;-91
2020/12/16 00:23:55;;;;;;;41.50;21.15;;;-1.30;85.80;;;;;;5083975;28;20024;-90
2020/12/16 00:26:22;;;;;;;40.38;21.77;;;-1.30;85.80;;;;;;5098113;28;20056;-91
2020/12/16 00:28:48;;;;;;;39.60;21.63;;;-1.30;85.90;;;;;;5091411;28;20013;-92
2020/12/16 00:31:17;;;;;;;40.60;21.20;;;-1.30;85.70;;;;;;5088624;28;20397;-91
2020/12/16 00:33:43;;;;;;;40.50;20.92;;;-1.40;85.70;;;;;;5087894;28;20047;-91
2020/12/16 00:36:10;;;;;;;42.70;21.65;;;-1.40;86.00;;;;;;5101348;28;20028;-91
2020/12/16 00:38:37;;;;;;;37.50;19.85;;;-1.40;86.10;;;;;;5104910;28;20004;-90
2020/12/16 00:41:03;;;;;;;38.42;20.70;;;-1.40;86.70;;;;;;5108391;28;20029;-92
2020/12/16 00:43:30;;;;;;;44.72;20.98;;;-1.40;86.20;;;;;;5093444;28;20058;-90
2020/12/16 00:45:56;;;;;;;39.13;20.63;;;-1.40;86.30;;;;;;5087918;28;20518;-90
2020/12/16 00:48:22;;;;;;;40.72;21.55;;;-1.40;86.30;;;;;;5104680;28;20080;-91
2020/12/16 00:50:50;;;;;;;37.45;20.33;;;-1.40;86.30;;;;;;5093366;28;20040;-91
2020/12/16 00:53:16;;;;;;;39.05;20.80;;;-1.40;86.30;;;;;;5093580;28;20078;-92
2020/12/16 00:55:43;;;;;;;46.58;21.85;;;-1.40;86.10;;;;;;5113108;28;20036;-91
2020/12/16 00:58:10;;;;;;;33.10;17.80;;;-1.50;85.90;;;;;;5064379;28;20024;-91
2020/12/16 01:00:39;;;;;;;37.85;19.33;;;-1.50;86.00;;;;;;5096083;28;20016;-92
2020/12/16 01:03:05;;;;;;;39.80;21.35;;;-1.50;86.10;;;;;;5099106;28;20014;-85
2020/12/16 01:05:31;;;;;;;37.28;19.40;;;-1.50;86.30;;;;;;5113925;28;20016;-88
2020/12/16 01:07:58;;;;;;;36.35;19.25;;;-1.60;86.50;;;;;;5119177;28;20036;-91
2020/12/16 01:10:26;;;;;;;51.17;21.95;;;-1.60;86.70;;;;;;5100959;28;20112;-92
2020/12/16 01:12:52;;;;;;;44.15;22.20;;;-1.50;86.80;;;;;;5108151;28;20040;-92
2020/12/16 01:15:23;;;;;;;43.45;21.85;;;-1.60;86.70;;;;;;5095493;28;20096;-92
2020/12/16 01:17:50;;;;;;;38.97;21.05;;;-1.60;86.80;;;;;;5097159;28;20177;-92
2020/12/16 01:20:16;;;;;;;36.65;18.63;;;-1.60;87.00;;;;;;5096513;28;20029;-92
2020/12/16 01:22:45;;;;;;;42.40;20.95;;;-1.60;87.10;;;;;;5073413;28;20495;-93
2020/12/16 01:25:12;;;;;;;44.67;21.73;;;-1.70;87.10;;;;;;5108592;28;20047;-93
2020/12/16 01:27:38;;;;;;;42.13;23.67;;;-1.70;87.20;;;;;;5073669;28;20025;-92
2020/12/16 01:30:09;;;;;;;33.65;21.42;;;-1.60;87.20;;;;;;5090961;28;20025;-94
2020/12/16 01:32:39;;;;;;;44.17;21.02;;;-1.60;87.10;;;;;;5075186;28;20037;-92
2020/12/16 01:35:06;;;;;;;38.75;21.05;;;-1.70;87.10;;;;;;5093412;28;20021;-94
2020/12/16 01:37:33;;;;;;;41.42;22.08;;;-1.60;87.30;;;;;;5100010;28;20017;-83
2020/12/16 01:40:00;;;;;;;45.22;20.92;;;-1.60;87.30;;;;;;5100704;28;20085;-88
2020/12/16 01:42:25;;;;;;;45.42;20.58;;;-1.60;87.30;;;;;;5100388;28;21375;-83
2020/12/16 01:44:51;;;;;;;34.95;20.52;;;-1.50;87.40;;;;;;5100421;28;20028;-89
2020/12/16 01:47:18;;;;;;;40.50;20.48;;;-1.50;87.30;;;;;;5099941;28;20020;-88
2020/12/16 01:49:45;;;;;;;39.55;19.30;;;-1.40;87.20;;;;;;5100555;28;20021;-90
2020/12/16 01:52:20;;;;;;;38.08;19.83;;;-1.50;87.10;;;;;;5093089;28;20040;-92
2020/12/16 01:54:48;;;;;;;39.75;20.55;;;-1.50;87.10;;;;;;5103589;28;20015;-92
2020/12/16 01:57:18;;;;;;;32.72;19.75;;;-1.50;87.10;;;;;;5094667;28;20070;-91
2020/12/16 01:59:47;;;;;;;35.40;17.70;;;-1.60;87.10;;;;;;5087750;28;20024;-94
2020/12/16 02:02:15;;;;;;;41.63;20.33;;;-1.60;87.20;;;;;;5085907;28;20032;-91
2020/12/16 02:04:46;;;;;;;39.97;20.85;;;-1.50;87.10;;;;;;5092510;28;20025;-91
2020/12/16 02:07:15;;;;;;;39.50;20.88;;;-1.50;86.90;;;;;;5095695;28;20036;-92
2020/12/16 02:09:46;;;;;;;42.35;20.95;;;-1.50;86.40;;;;;;5099698;28;20027;-91
2020/12/16 02:12:13;;;;;;;36.53;18.17;;;-1.50;86.60;;;;;;5097902;28;20090;-93
2020/12/16 02:14:42;;;;;;;42.22;19.00;;;-1.60;86.70;;;;;;5088923;28;20029;-91
2020/12/16 02:17:10;;;;;;;46.08;23.85;;;-1.60;87.00;;;;;;5086489;28;20086;-92
2020/12/16 02:19:46;;;;;;;39.30;19.30;;;-1.60;87.20;;;;;;5077807;28;20020;-90
2020/12/16 02:22:14;;;;;;;41.58;21.27;;;-1.50;87.70;;;;;;5099165;28;20045;-87
2020/12/16 02:25:03;;;;;;;44.28;22.40;;;-1.50;87.00;;;;;;5096458;28;20059;-93
2020/12/16 02:27:30;;;;;;;37.10;19.20;;;-1.50;87.10;;;;;;5087183;28;20099;-93
2020/12/16 02:29:57;;;;;;;42.42;19.00;;;-1.50;87.20;;;;;;5065702;28;20139;-91
2020/12/16 02:32:26;;;;;;;35.47;18.40;;;-1.50;87.20;;;;;;5055346;28;20045;-92
2020/12/16 02:34:53;;;;;;;39.90;18.73;;;-1.40;87.20;;;;;;5064201;28;20036;-93
2020/12/16 02:37:20;;;;;;;37.13;19.73;;;-1.50;87.00;;;;;;5048171;28;20052;-89
2020/12/16 02:39:47;;;;;;;38.38;19.35;;;-1.50;87.10;;;;;;5060550;28;20029;-92
2020/12/16 02:42:25;;;;;;;42.65;19.85;;;-1.50;87.10;;;;;;5063905;28;20047;-94
2020/12/16 02:44:59;;;;;;;47.13;19.77;;;-1.50;87.00;;;;;;5057772;28;20029;-92
2020/12/16 02:47:27;;;;;;;39.92;20.08;;;-1.40;87.00;;;;;;5076294;28;20029;-91
2020/12/16 02:49:54;;;;;;;36.03;20.00;;;-1.40;86.90;;;;;;5051712;28;20033;-90
2020/12/16 02:52:20;;;;;;;38.45;19.95;;;-1.50;86.90;;;;;;5067271;28;20033;-90
2020/12/16 02:54:47;;;;;;;45.15;20.88;;;-1.50;86.90;;;;;;5021032;28;20033;-93
2020/12/16 02:57:16;;;;;;;36.40;19.33;;;-1.50;87.00;;;;;;5059264;28;20085;-92
2020/12/16 02:59:55;;;;;;;35.45;19.38;;;-1.50;87.10;;;;;;5066742;28;20036;-93
2020/12/16 03:02:21;;;;;;;36.15;19.17;;;-1.50;87.20;;;;;;5086578;28;20028;-92
2020/12/16 03:04:47;;;;;;;44.22;22.23;;;-1.50;87.20;;;;;;5091048;28;20032;-80
2020/12/16 03:07:14;;;;;;;40.70;21.05;;;-1.50;87.30;;;;;;5098282;28;20024;-80
2020/12/16 03:09:40;;;;;;;42.67;20.20;;;-1.50;87.40;;;;;;5099223;28;20031;-88
2020/12/16 03:12:11;;;;;;;35.67;19.13;;;-1.50;87.40;;;;;;5111480;28;20039;-92
2020/12/16 03:14:39;;;;;;;39.88;19.70;;;-1.40;87.50;;;;;;5109455;28;20100;-93
2020/12/16 03:17:13;;;;;;;43.58;20.55;;;-1.40;87.50;;;;;;5079802;28;20055;-91
2020/12/16 03:19:39;;;;;;;42.35;21.83;;;-1.40;87.40;;;;;;5083935;28;20097;-92
2020/12/16 03:22:11;;;;;;;39.38;23.38;;;-1.40;87.20;;;;;;5098648;28;20020;-86
2020/12/16 03:24:37;;;;;;;40.25;20.17;;;-1.40;87.00;;;;;;5097657;28;20052;-93
2020/12/16 03:27:09;;;;;;;35.25;20.25;;;-1.40;87.00;;;;;;5096442;28;20036;-88
2020/12/16 03:29:35;;;;;;;40.15;20.05;;;-1.30;87.20;;;;;;5064278;28;20104;-93
2020/12/16 03:32:06;;;;;;;41.90;21.38;;;-1.30;87.30;;;;;;5106455;28;20816;-94
2020/12/16 03:34:33;;;;;;;44.05;22.48;;;-1.30;87.20;;;;;;5110933;28;20426;-93
2020/12/16 03:37:05;;;;;;;39.00;21.23;;;-1.30;86.70;;;;;;5072134;28;20029;-93
2020/12/16 03:39:32;;;;;;;45.38;21.92;;;-1.30;86.50;;;;;;5033167;28;20030;-95
2020/12/16 03:41:58;;;;;;;50.88;24.67;;;-1.30;86.60;;;;;;5062576;28;20076;-94
2020/12/16 03:44:24;;;;;;;50.90;23.98;;;-1.40;86.70;;;;;;5056102;28;20127;-91
2020/12/16 03:46:55;;;;;;;45.78;23.63;;;-1.40;86.90;;;;;;5077270;28;20092;-86
2020/12/16 03:49:22;;;;;;;41.35;21.60;;;-1.40;86.90;;;;;;5058293;28;20065;-94
2020/12/16 03:52:08;;;;;;;42.67;21.38;;;-1.40;87.00;;;;;;5074881;28;20029;-94
2020/12/16 03:54:37;;;;;;;47.97;23.08;;;-1.40;87.20;;;;;;5070300;28;20057;-93
2020/12/16 03:57:05;;;;;;;42.78;20.58;;;-1.50;87.10;;;;;;5073950;28;20025;-89
2020/12/16 03:59:31;;;;;;;45.95;22.58;;;-1.50;87.30;;;;;;5073887;28;20025;-92
2020/12/16 04:02:00;;;;;;;39.92;21.45;;;-1.60;87.60;;;;;;5069980;28;20032;-92
2020/12/16 04:04:27;;;;;;;42.30;23.60;;;-1.60;88.00;;;;;;5035058;28;20181;-93
2020/12/16 04:07:05;;;;;;;47.97;22.65;;;-1.70;88.20;;;;;;5024364;28;20495;-94
2020/12/16 04:09:35;;;;;;;46.85;22.88;;;-1.70;88.30;;;;;;5001405;28;20130;-92
2020/12/16 04:12:10;;;;;;;47.33;20.90;;;-1.70;88.40;;;;;;5063163;28;20047;-94
2020/12/16 04:14:36;;;;;;;52.47;23.42;;;-1.70;88.30;;;;;;5052648;28;20033;-93
2020/12/16 04:17:02;;;;;;;44.13;22.80;;;-1.70;88.40;;;;;;5063081;28;20033;-94
2020/12/16 04:19:28;;;;;;;46.45;22.58;;;-1.70;88.40;;;;;;5053140;28;20025;-92
2020/12/16 04:21:56;;;;;;;39.53;19.05;;;-1.70;88.50;;;;;;5066330;28;20160;-95
2020/12/16 04:24:22;;;;;;;45.97;23.50;;;-1.80;88.80;;;;;;5052515;28;20027;-92
2020/12/16 04:26:48;;;;;;;45.05;24.45;;;-1.80;88.80;;;;;;5072587;28;20025;-92
2020/12/16 04:29:14;;;;;;;46.95;22.98;;;-1.90;88.90;;;;;;5072028;28;20021;-91
2020/12/16 04:31:41;;;;;;;46.53;22.42;;;-2.00;89.00;;;;;;5053424;28;20033;-92
2020/12/16 04:34:07;;;;;;;46.55;23.88;;;-2.00;89.20;;;;;;5046602;28;20037;-92
2020/12/16 04:36:35;;;;;;;40.30;19.75;;;-2.10;89.40;;;;;;5032761;28;20060;-91
2020/12/16 04:39:02;;;;;;;45.85;23.70;;;-2.10;89.60;;;;;;5068759;28;20072;-94
2020/12/16 04:41:31;;;;;;;47.72;24.35;;;-2.10;89.80;;;;;;5037454;28;20040;-92
2020/12/16 04:43:58;;;;;;;;;;;-2.10;89.70;;;;;;5031584;28;20033;-94
2020/12/16 04:46:29;;;;;;;46.35;20.83;;;-2.10;89.60;;;;;;5042813;28;19909;-95
2020/12/16 04:48:55;;;;;;;35.25;19.15;;;-2.20;89.60;;;;;;5036701;28;20033;-92
2020/12/16 04:51:23;;;;;;;51.38;22.63;;;-2.20;89.70;;;;;;5036378;28;20038;-92
2020/12/16 04:53:52;;;;;;;43.15;20.63;;;-2.20;89.60;;;;;;5041918;28;20077;-92
2020/12/16 04:56:19;;;;;;;42.30;20.83;;;-2.20;89.70;;;;;;5046228;28;20029;-92
2020/12/16 04:58:46;;;;;;;47.35;22.50;;;-2.30;89.60;;;;;;5034028;28;20511;-91
2020/12/16 05:01:11;;;;;;;47.97;22.73;;;-2.30;89.80;;;;;;5041735;28;20052;-89
2020/12/16 05:03:41;;;;;;;44.15;22.27;;;-2.30;89.80;;;;;;5043095;28;20055;-90
2020/12/16 05:06:07;;;;;;;40.33;20.75;;;-2.20;89.70;;;;;;5035775;28;20077;-93
2020/12/16 05:08:32;;;;;;;51.25;22.95;;;-2.20;89.50;;;;;;5045154;28;20076;-90
2020/12/16 05:11:00;;;;;;;40.15;21.95;;;-2.30;89.50;;;;;;5057821;28;20045;-90
2020/12/16 05:13:27;;;;;;;40.55;21.77;;;-2.30;89.50;;;;;;5006677;28;20029;-88
2020/12/16 05:16:00;;;;;;;53.50;22.05;;;-2.30;89.50;;;;;;5058795;28;20041;-91
2020/12/16 05:18:26;;;;;;;45.50;24.05;;;-2.30;89.50;;;;;;5076902;28;20042;-90
2020/12/16 05:20:56;;;;;;;47.25;21.65;;;-2.30;89.60;;;;;;5070627;28;20029;-91
2020/12/16 05:23:26;;;;;;;47.92;23.38;;;-2.20;89.60;;;;;;5063872;28;20045;-90
2020/12/16 05:26:20;;;;;;;53.08;28.55;;;-2.20;89.60;;;;;;5077917;28;20045;-91
2020/12/16 05:28:49;;;;;;;47.03;23.38;;;-2.20;89.20;;;;;;5008088;28;20090;-91
2020/12/16 05:31:16;;;;;;;46.28;21.33;;;-2.30;89.30;;;;;;5010484;28;20105;-91
2020/12/16 05:33:48;;;;;;;42.47;23.33;;;-2.30;89.50;;;;;;5000960;28;20066;-89
2020/12/16 05:36:36;;;;;;;50.92;24.80;;;-2.30;89.40;;;;;;4990676;28;20031;-92
2020/12/16 05:39:02;;;;;;;54.85;24.65;;;-2.30;89.00;;;;;;5006456;28;20054;-91
2020/12/16 05:41:33;;;;;;;59.80;27.00;;;-2.40;89.10;;;;;;5017168;28;20089;-92
2020/12/16 05:44:21;;;;;;;52.78;24.75;;;-2.50;89.40;;;;;;4999451;28;20030;-92
2020/12/16 05:46:49;;;;;;;49.42;23.42;;;-2.50;89.80;;;;;;4999292;28;20045;-94
2020/12/16 05:49:27;;;;;;;46.33;22.17;;;-2.50;90.00;;;;;;4997676;28;20097;-87
2020/12/16 05:51:59;;;;;;;45.65;24.17;;;-2.50;90.10;;;;;;4998194;28;20051;-93
2020/12/16 05:54:27;;;;;;;51.30;26.13;;;-2.50;90.20;;;;;;4960522;28;20061;-87
2020/12/16 05:57:25;;;;;;;52.58;25.60;;;-2.40;90.20;;;;;;4945130;28;20051;-92
2020/12/16 06:00:06;;;;;;;54.47;24.77;;;-2.40;90.30;;;;;;4969692;29;20087;-92
2020/12/16 06:02:54;;;;;;;46.47;23.60;;;-2.40;90.30;;;;;;4955286;28;20029;-94
2020/12/16 06:05:21;;;;;;;57.85;26.25;;;-2.30;90.40;;;;;;5004689;28;20030;-95
2020/12/16 06:07:54;;;;;;;46.53;24.50;;;-2.30;90.30;;;;;;5023586;28;20038;-94
2020/12/16 06:10:21;;;;;;;44.47;23.02;;;-2.30;90.30;;;;;;5018562;28;20042;-94
2020/12/16 06:12:47;;;;;;;45.00;22.52;;;-2.30;90.30;;;;;;5006682;28;20038;-90
2020/12/16 06:15:16;;;;;;;55.63;26.15;;;-2.30;90.20;;;;;;5033789;28;20126;-94
2020/12/16 06:17:48;;;;;;;54.80;26.50;;;-2.30;90.30;;;;;;5031839;28;20018;-90
2020/12/16 06:20:17;;;;;;;49.30;23.75;;;-2.30;90.30;;;;;;5027246;28;20061;-87
2020/12/16 06:22:45;;;;;;;52.92;23.90;;;-2.30;90.50;;;;;;5014351;28;20025;-88
2020/12/16 06:25:17;;;;;;;43.95;24.60;;;-2.30;90.20;;;;;;5045165;28;20057;-88
2020/12/16 06:27:50;;;;;;;46.92;24.13;;;-2.30;90.30;;;;;;5050358;28;20040;-85
2020/12/16 06:30:35;;;;;;;46.63;24.77;;;-2.40;90.20;;;;;;5052955;28;20374;-84
2020/12/16 06:33:12;;;;;;;52.33;25.25;;;-2.30;90.30;;;;;;5052378;28;20140;-85
2020/12/16 06:35:39;;;;;;;44.83;22.48;;;-2.30;90.30;;;;;;5034149;28;20413;-84
2020/12/16 06:38:15;;;;;;;;;;;-2.40;90.50;;;;;;5049658;28;20475;-84
2020/12/16 06:40:46;;;;;;;44.65;24.48;;;-2.40;90.20;;;;;;5055572;28;20277;-83
2020/12/16 06:43:30;;;;;;;53.35;24.98;;;-2.50;90.30;;;;;;5064058;28;20017;-84
2020/12/16 06:46:00;;;;;;;48.60;26.40;;;-2.50;90.30;;;;;;5054077;28;20040;-85
2020/12/16 06:48:38;;;;;;;42.92;21.98;;;-2.50;90.30;;;;;;5054660;28;20061;-83
2020/12/16 06:51:20;;;;;;;48.03;26.90;;;-2.50;90.40;;;;;;5054499;28;20390;-84
2020/12/16 06:53:47;;;;;;;48.47;25.98;;;-2.60;90.40;;;;;;5054399;28;20032;-85
2020/12/16 06:56:20;;;;;;;56.42;26.73;;;-2.60;90.40;;;;;;5045075;28;20028;-85
2020/12/16 06:58:46;;;;;;;54.53;29.85;;;-2.60;90.60;;;;;;5034263;28;20136;-86
2020/12/16 07:01:16;;;;;;;50.80;25.50;;;-2.60;90.60;;;;;;5043880;28;20078;-84
2020/12/16 07:03:43;;;;;;;44.55;22.73;;;-2.50;90.60;;;;;;5054217;28;20028;-84
2020/12/16 07:06:11;;;;;;;53.33;27.80;;;-2.40;90.50;;;;;;5059679;28;20433;-84
2020/12/16 07:08:37;;;;;;;58.33;25.30;;;-2.40;90.30;;;;;;5058218;28;20445;-84
2020/12/16 07:11:04;;;;;;;55.10;25.75;;;-2.40;90.30;;;;;;5058974;28;20055;-86
2020/12/16 07:13:35;;;;;;;51.80;24.90;;;-2.30;90.40;;;;;;5054978;28;20016;-84
2020/12/16 07:16:13;;;;;;;54.53;25.10;;;-2.30;90.30;;;;;;5056943;28;20032;-84
2020/12/16 07:18:39;;;;;;;54.28;26.30;;;-2.30;90.30;;;;;;5048032;28;20091;-84
2020/12/16 07:21:08;;;;;;;42.65;21.73;;;-2.30;90.20;;;;;;5054161;28;20087;-85
2020/12/16 07:23:39;;;;;;;41.95;22.25;;;-2.40;90.20;;;;;;5054158;28;20029;-84
2020/12/16 07:26:05;;;;;;;45.35;25.02;;;-2.30;90.30;;;;;;5069403;28;20550;-83
2020/12/16 07:28:37;;;;;;;48.30;21.52;;;-2.30;90.20;;;;;;5072849;28;20024;-87
2020/12/16 07:31:07;;;;;;;48.97;22.75;;;-2.30;90.20;;;;;;5073163;28;20078;-85
2020/12/16 07:33:36;;;;;;;53.38;25.05;;;-2.30;90.10;;;;;;5071963;28;20044;-84
2020/12/16 07:36:02;;;;;;;49.47;25.27;;;-2.20;90.00;;;;;;5073041;28;20028;-84
2020/12/16 07:38:28;;;;;;;48.07;24.00;;;-2.20;89.90;;;;;;5072869;28;20020;-86
2020/12/16 07:40:55;;;;;;;39.75;22.52;;;-2.20;89.60;;;;;;5073264;28;20019;-84
2020/12/16 07:43:22;;;;;;;47.05;23.20;;;-2.20;89.30;;;;;;5073411;28;20028;-84
2020/12/16 07:46:04;;;;;;;41.95;24.05;;;-2.20;89.10;;;;;;5073199;28;20354;-85
2020/12/16 07:48:30;;;;;;;40.47;23.13;;;-2.20;88.80;;;;;;5089782;28;20420;-85
2020/12/16 07:51:06;;;;;;;46.25;23.95;;;-2.30;88.70;;;;;;5074090;28;20041;-84
2020/12/16 07:53:33;;;;;;;40.70;20.45;;;-2.40;88.30;;;;;;5073626;28;20016;-85
2020/12/16 07:56:03;;;;;;;43.88;24.58;;;-2.50;88.40;;;;;;5073786;28;20029;-84
2020/12/16 07:58:31;;;;;;;44.47;21.98;;;-2.60;88.70;;;;;;5073466;28;20031;-84
2020/12/16 08:01:17;;;;;;;40.55;22.00;;;-2.60;89.10;;;;;;5073301;28;20466;-85
2020/12/16 08:03:44;;;;;;;48.10;23.17;;;-2.60;89.40;;;;;;5057426;28;20037;-84
2020/12/16 08:06:11;;;;;;;43.22;23.05;;;-2.60;89.50;;;;;;5074164;28;20025;-84
2020/12/16 08:08:55;;;;;;;45.08;22.92;;;-2.50;89.40;;;;;;5067082;28;20029;-84
2020/12/16 08:11:28;;;;;;;53.25;25.27;;;-2.50;90.00;;;;;;5061390;28;20072;-86
2020/12/16 08:14:07;;;;;;;40.50;19.92;;;-2.40;89.50;;;;;;5077519;28;20425;-84
2020/12/16 08:16:34;;;;;;;40.05;20.40;;;-2.40;88.90;;;;;;5075771;28;20020;-84
2020/12/16 08:19:01;;;;;;;41.78;21.15;;;-2.40;89.00;;;;;;5073686;28;20017;-84
2020/12/16 08:21:27;;;;;;;49.67;24.38;;;-2.40;89.40;;;;;;5074212;28;20384;-86
2020/12/16 08:23:54;;;;;;;38.08;20.42;;;-2.30;89.40;;;;;;5073735;28;20016;-84
2020/12/16 08:26:23;;;;;;;39.85;20.52;;;-2.40;89.10;;;;;;5072312;28;20524;-82
2020/12/16 08:28:49;;;;;;;40.67;22.73;;;-2.50;89.20;;;;;;5071343;28;20033;-83
2020/12/16 08:31:21;;;;;;;33.75;17.90;;;-2.40;89.70;;;;;;5077221;28;20033;-83
2020/12/16 08:33:50;;;;;;;35.58;18.33;;;-2.30;89.70;;;;;;5058354;28;20103;-84
2020/12/16 08:36:22;;;;;;;30.05;16.33;;;-2.20;89.40;;;;;;5073170;28;20044;-83
2020/12/16 08:38:50;;;;;;;38.13;18.92;;;-2.20;89.10;;;;;;5073258;28;20108;-84
2020/12/16 08:41:27;;;;;;;31.08;18.60;;;-2.10;89.40;;;;;;5073578;28;20021;-84
2020/12/16 08:43:55;;;;;;;34.60;16.13;;;-2.10;89.40;;;;;;5077720;28;20012;-85
2020/12/16 08:46:26;;;;;;;30.08;16.40;;;-2.10;89.20;;;;;;5077086;28;20036;-83
2020/12/16 08:49:01;;;;;;;33.17;16.00;;;-2.00;89.10;;;;;;5075352;28;20027;-82
2020/12/16 08:51:41;;;;;;;32.97;16.58;;;-2.00;88.90;;;;;;5076233;28;20042;-83
2020/12/16 08:54:24;;;;;;;35.35;17.38;;;-2.00;88.90;;;;;;5062582;28;20063;-84
2020/12/16 08:56:53;;;;;;;27.75;15.05;;;-1.90;89.00;;;;;;5076310;28;20024;-84
2020/12/16 08:59:24;;;;;;;35.42;17.30;;;-1.90;88.70;;;;;;5075992;28;20033;-84
2020/12/16 09:02:07;;;;;;;31.10;16.52;;;-1.80;88.80;;;;;;5076056;28;20457;-84
2020/12/16 09:04:39;;;;;;;32.80;15.93;;;-1.90;88.80;;;;;;5064207;28;20016;-84
2020/12/16 09:07:07;;;;;;;27.63;14.93;;;-1.90;88.60;;;;;;5075956;28;20032;-85
2020/12/16 09:09:36;;;;;;;28.48;14.90;;;-1.90;88.90;;;;;;5083277;28;20020;-85
2020/12/16 09:12:03;;;;;;;30.42;15.63;;;-1.90;89.20;;;;;;5082537;28;20033;-85
2020/12/16 09:14:29;;;;;;;25.60;14.93;;;-1.90;89.10;;;;;;5076123;28;20086;-84
2020/12/16 09:16:55;;;;;;;29.88;16.15;;;-1.90;88.90;;;;;;5077253;28;20517;-83
2020/12/16 09:19:23;;;;;;;31.35;15.20;;;-1.90;89.20;;;;;;5075898;28;20036;-84
2020/12/16 09:21:50;;;;;;;27.70;14.73;;;-1.80;89.40;;;;;;5077348;28;20089;-85
2020/12/16 09:24:21;;;;;;;28.85;15.93;;;-1.70;89.40;;;;;;5082071;28;20080;-86
2020/12/16 09:26:47;;;;;;;32.85;15.98;;;-1.60;89.10;;;;;;5081158;28;20024;-84
2020/12/16 09:29:15;;;;;;;26.13;17.42;;;-1.60;88.90;;;;;;5078951;28;20021;-86
2020/12/16 09:31:41;;;;;;;23.60;13.80;;;-1.60;88.80;;;;;;5078266;28;20111;-85
2020/12/16 09:34:07;;;;;;;26.52;14.13;;;-1.50;88.70;;;;;;5077657;28;20439;-86
2020/12/16 09:36:33;;;;;;;32.45;17.15;;;-1.50;88.70;;;;;;5075663;28;20035;-87
2020/12/16 09:39:03;;;;;;;29.20;16.83;;;-1.50;88.80;;;;;;5075892;28;20028;-85
2020/12/16 09:41:40;;;;;;;29.75;13.68;;;-1.40;88.70;;;;;;5075452;28;20059;-84
2020/12/16 09:44:06;;;;;;;22.90;13.60;;;-1.40;88.40;;;;;;5075514;28;20021;-86
2020/12/16 09:46:32;;;;;;;24.13;12.90;;;-1.40;89.10;;;;;;5075330;28;20084;-85
2020/12/16 09:49:00;;;;;;;19.58;9.93;;;-1.50;88.30;;;;;;5075874;28;20032;-85
2020/12/16 09:51:26;;;;;;;14.35;9.38;;;-1.50;88.50;;;;;;5079739;28;20037;-85
2020/12/16 09:53:54;;;;;;;16.70;9.65;;;-1.50;88.70;;;;;;5077358;28;20078;-86
2020/12/16 09:56:27;;;;;;;15.73;8.93;;;-1.40;88.90;;;;;;5075650;28;20102;-84
2020/12/16 09:58:56;;;;;;;16.50;11.52;;;-1.40;89.00;;;;;;5075012;28;20367;-83
2020/12/16 10:01:23;;;;;;;16.70;9.48;;;-1.40;88.70;;;;;;5075841;28;20430;-84
2020/12/16 10:03:50;;;;;;;17.33;9.35;;;-1.40;88.70;;;;;;5066488;28;20079;-85
2020/12/16 10:06:17;;;;;;;14.52;8.32;;;-1.30;89.00;;;;;;5075326;28;20412;-84
2020/12/16 10:08:43;;;;;;;13.65;8.32;;;-1.30;89.00;;;;;;5074949;28;20432;-85
2020/12/16 10:11:16;;;;;;;12.52;7.13;;;-1.30;89.30;;;;;;5078299;28;20124;-84
2020/12/16 10:13:43;;;;;;;12.82;6.80;;;-1.30;89.50;;;;;;5076712;28;20105;-83
2020/12/16 10:16:11;;;;;;;16.35;8.43;;;-1.30;89.60;;;;;;5076918;28;20023;-86
2020/12/16 10:18:38;;;;;;;17.50;9.63;;;-1.20;89.70;;;;;;5075835;28;20108;-85
2020/12/16 10:21:04;;;;;;;15.90;9.53;;;-1.30;89.60;;;;;;5103042;28;20124;-84
2020/12/16 10:23:31;;;;;;;17.15;9.32;;;-1.30;90.00;;;;;;5089956;28;20288;-84
2020/12/16 10:25:57;;;;;;;17.85;8.85;;;-1.30;90.00;;;;;;5075313;28;20044;-85
2020/12/16 10:28:23;;;;;;;15.98;8.07;;;-1.20;90.00;;;;;;5074240;28;20497;-83
2020/12/16 10:30:49;;;;;;;16.13;7.85;;;-1.20;89.90;;;;;;5074497;28;20044;-84
2020/12/16 10:33:15;;;;;;;14.60;9.10;;;-1.20;90.00;;;;;;5072615;28;20048;-85
2020/12/16 10:35:42;;;;;;;16.15;8.70;;;-1.10;90.10;;;;;;5073871;28;20020;-85
2020/12/16 10:38:08;;;;;;;18.50;9.02;;;-1.00;90.20;;;;;;5072263;28;20386;-84
2020/12/16 10:40:34;;;;;;;17.67;9.10;;;-1.00;90.10;;;;;;5074873;28;20021;-88
2020/12/16 10:43:03;;;;;;;16.65;9.77;;;-1.00;90.00;;;;;;5076387;28;20462;-84
2020/12/16 10:45:30;;;;;;;17.17;9.57;;;-1.00;90.00;;;;;;5072625;28;20020;-85
2020/12/16 10:47:58;;;;;;;18.30;11.68;;;-1.10;89.90;;;;;;5074370;28;20096;-86
2020/12/16 10:50:25;;;;;;;22.25;12.98;;;-1.10;90.00;;;;;;5070192;28;20020;-85
2020/12/16 10:52:51;;;;;;;17.88;11.25;;;-1.00;90.00;;;;;;5063573;28;20062;-85
2020/12/16 10:55:17;;;;;;;18.48;10.15;;;-1.00;90.00;;;;;;5076242;28;20122;-87
2020/12/16 10:57:44;;;;;;;16.23;10.02;;;-0.90;90.00;;;;;;5077843;28;20044;-84
2020/12/16 11:00:10;;;;;;;23.83;12.13;;;-0.90;89.80;;;;;;5076214;28;20021;-86
2020/12/16 11:02:35;;;;;;;20.95;10.45;;;-0.90;90.10;;;;;;5071569;28;20493;-86
2020/12/16 11:05:01;;;;;;;21.10;9.15;;;-0.90;89.70;;;;;;5067199;28;20054;-84
2020/12/16 11:07:27;;;;;;;21.88;11.55;;;-0.80;90.20;;;;;;5078241;28;20027;-85
2020/12/16 11:09:53;;;;;;;24.38;12.48;;;-0.80;90.00;;;;;;5079126;28;20436;-85
2020/12/16 11:12:19;;;;;;;20.88;10.73;;;-0.90;89.90;;;;;;5095294;28;20055;-86
2020/12/16 11:14:44;;;;;;;17.00;9.88;;;-0.80;90.00;;;;;;5084176;28;20020;-84
2020/12/16 11:17:10;;;;;;;20.48;10.90;;;-0.80;90.00;;;;;;5082519;28;20054;-85
2020/12/16 11:19:36;;;;;;;17.65;10.43;;;-0.80;90.00;;;;;;5082948;28;20091;-85
2020/12/16 11:22:03;;;;;;;21.35;10.73;;;-0.80;90.10;;;;;;5083003;28;20032;-84
2020/12/16 11:24:29;;;;;;;21.57;9.93;;;-0.70;90.10;;;;;;5073667;28;20048;-85
2020/12/16 11:26:55;;;;;;;15.60;9.27;;;-0.70;90.00;;;;;;5075061;28;20265;-85
2020/12/16 11:29:23;;;;;;;19.33;10.82;;;-0.80;90.00;;;;;;5090564;28;20032;-84
2020/12/16 11:32:03;;;;;;;22.77;11.07;;;-0.80;90.10;;;;;;5072280;28;20037;-85
2020/12/16 11:34:29;;;;;;;18.05;11.20;;;-0.90;90.10;;;;;;5055106;28;20375;-85
2020/12/16 11:36:58;;;;;;;19.92;10.18;;;-0.90;90.20;;;;;;5074173;28;20024;-86
2020/12/16 11:39:25;;;;;;;20.55;10.02;;;-0.90;90.20;;;;;;5078143;28;20024;-86
2020/12/16 11:41:52;;;;;;;24.27;12.20;;;-0.80;90.20;;;;;;5075777;28;20025;-84
2020/12/16 11:44:19;;;;;;;21.77;12.70;;;-0.80;90.30;;;;;;5077922;28;20050;-84
2020/12/16 11:46:45;;;;;;;21.73;10.73;;;-0.70;90.30;;;;;;5074039;28;20036;-86
2020/12/16 11:49:14;;;;;;;24.83;12.25;;;-0.70;90.30;;;;;;5074329;28;20099;-86
2020/12/16 11:51:40;;;;;;;22.48;10.75;;;-0.70;90.30;;;;;;5074351;28;20039;-85
2020/12/16 11:54:06;;;;;;;39.38;13.60;;;-0.60;90.30;;;;;;5073627;28;20424;-86
2020/12/16 11:56:34;;;;;;;20.05;10.65;;;-0.60;90.20;;;;;;5073431;28;20021;-85
2020/12/16 11:59:00;;;;;;;20.35;10.52;;;-0.60;90.20;;;;;;5073343;28;20052;-86
2020/12/16 12:01:26;;;;;;;17.63;9.93;;;-0.60;90.20;;;;;;5073209;28;20024;-84
2020/12/16 12:03:52;;;;;;;20.08;10.00;;;-0.60;90.20;;;;;;5072823;28;20033;-86
2020/12/16 12:06:18;;;;;;;23.75;11.45;;;-0.70;90.30;;;;;;5073186;28;20047;-85
2020/12/16 12:08:44;;;;;;;21.45;11.05;;;-0.80;90.40;;;;;;5076514;28;20108;-85
2020/12/16 12:11:12;;;;;;;20.17;10.85;;;-0.70;90.50;;;;;;5089246;28;20029;-85
2020/12/16 12:13:39;;;;;;;20.33;11.60;;;-0.70;90.60;;;;;;5073116;28;20405;-85
2020/12/16 12:16:10;;;;;;;19.08;11.27;;;-0.70;90.50;;;;;;5075245;28;20020;-85
2020/12/16 12:18:38;;;;;;;21.10;11.55;;;-0.60;90.50;;;;;;5078797;28;20077;-85
2020/12/16 12:21:05;;;;;;;18.85;10.63;;;-0.60;90.40;;;;;;5077162;28;20020;-85
2020/12/16 12:23:31;;;;;;;20.88;12.10;;;-0.70;90.40;;;;;;5076080;28;20024;-85
2020/12/16 12:25:57;;;;;;;20.05;10.98;;;-0.70;90.50;;;;;;5077761;28;20041;-85
2020/12/16 12:28:22;;;;;;;19.52;12.02;;;-0.70;90.60;;;;;;5078796;28;20355;-84
2020/12/16 12:30:49;;;;;;;24.25;12.50;;;-0.70;90.60;;;;;;5099483;28;20071;-87
2020/12/16 12:33:14;;;;;;;20.25;11.50;;;-0.60;90.60;;;;;;5085260;28;20049;-84
2020/12/16 12:35:40;;;;;;;22.05;12.75;;;-0.60;90.60;;;;;;5081591;28;20413;-85
2020/12/16 12:38:06;;;;;;;18.45;11.65;;;-0.50;90.50;;;;;;5080584;28;20478;-85